Time;durP1;ratioP1;P1;durP2;ratioP2;P2;SDS_P1;SDS_P2;PMS_P1;PMS_P2;Temp;Humidity;BMP_temperature;BMP_pressure;BME280_temperature;BME280_humidity;BME280_pressure;Samples;Min_cycle;Max_cycle;Signal;HPM_P1;HPM_P2
2022/07/28 00:00:39;;;;;;;4.35;1.30;;;;;;;13.07;79.65;99653.16;1755362;80;20928;-60
2022/07/28 00:03:07;;;;;;;4.78;1.47;;;;;;;13.09;79.71;99656.54;1753983;81;20871;-60
2022/07/28 00:05:34;;;;;;;4.45;1.80;;;;;;;13.10;79.66;99655.59;1759982;80;20941;-60
2022/07/28 00:08:01;;;;;;;5.45;1.67;;;;;;;13.11;79.76;99659.92;1751774;80;21039;-60
2022/07/28 00:10:28;;;;;;;2.80;1.10;;;;;;;13.11;79.81;99655.98;1745783;81;20897;-61
2022/07/28 00:12:54;;;;;;;4.90;1.13;;;;;;;13.12;79.80;99653.73;1773628;79;20952;-60
2022/07/28 00:15:21;;;;;;;4.67;1.40;;;;;;;13.13;79.82;99658.03;1768121;79;20932;-61
2022/07/28 00:17:48;;;;;;;7.42;2.02;;;;;;;13.13;79.83;99655.41;1770652;79;21471;-60
2022/07/28 00:20:14;;;;;;;3.10;1.17;;;;;;;13.12;79.94;99658.98;1752912;80;21075;-60
2022/07/28 00:22:42;;;;;;;7.53;1.17;;;;;;;13.13;80.00;99658.03;1753761;80;20984;-61
2022/07/28 00:25:09;;;;;;;4.42;1.62;;;;;;;13.12;80.01;99653.73;1756778;80;20984;-60
2022/07/28 00:27:36;;;;;;;6.28;1.80;;;;;;;13.11;80.10;99653.37;1753937;79;20898;-60
2022/07/28 00:30:07;;;;;;;5.30;1.70;;;;;;;13.10;80.11;99652.97;1756342;80;20962;-61
2022/07/28 00:32:36;;;;;;;6.25;1.55;;;;;;;13.10;80.12;99651.66;1750928;80;21791;-61
2022/07/28 00:35:03;;;;;;;3.10;1.20;;;;;;;13.08;80.25;99654.86;1749146;80;20883;-61
2022/07/28 00:37:30;;;;;;;;;;;;;;;13.10;80.29;99655.59;1751212;80;20946;-60
2022/07/28 00:39:57;;;;;;;3.98;1.30;;;;;;;13.11;80.38;99653.37;1755597;80;20118;-60
2022/07/28 00:42:23;;;;;;;6.00;1.77;;;;;;;13.08;80.41;99656.17;1751914;80;20917;-60
2022/07/28 00:44:50;;;;;;;7.87;1.60;;;;;;;13.09;80.43;99653.92;1751242;80;21844;-60
2022/07/28 00:47:18;;;;;;;4.87;1.60;;;;;;;13.06;80.46;99651.48;1776106;80;20930;-60
2022/07/28 00:49:47;;;;;;;4.05;1.20;;;;;;;13.11;80.57;99657.30;1777562;80;21525;-60
2022/07/28 00:52:16;;;;;;;4.15;1.35;;;;;;;13.12;80.60;99660.29;1778602;80;21475;-60
2022/07/28 00:54:43;;;;;;;3.85;1.40;;;;;;;13.14;80.64;99656.28;1770429;80;21500;-61
2022/07/28 00:57:10;;;;;;;4.70;1.20;;;;;;;13.14;80.71;99656.28;1741324;81;21091;-60
2022/07/28 00:59:36;;;;;;;8.43;1.90;;;;;;;13.15;80.76;99660.58;1740116;80;20934;-60
2022/07/28 01:02:04;;;;;;;3.70;1.40;;;;;;;13.15;80.79;99653.55;1760687;81;20867;-60
2022/07/28 01:04:31;;;;;;;5.20;2.25;;;;;;;13.15;80.86;99650.09;1761952;80;20981;-60
2022/07/28 01:07:12;;;;;;;3.92;1.12;;;;;;;13.13;80.99;99641.47;1760801;80;21459;-60
2022/07/28 01:09:49;;;;;;;4.92;1.47;;;;;;;13.12;81.05;99654.20;1779960;80;20873;-61
2022/07/28 01:12:34;;;;;;;5.87;2.00;;;;;;;13.11;81.10;99655.98;1764051;80;20911;-60
2022/07/28 01:15:34;;;;;;;6.50;1.67;;;;;;;13.12;81.19;99647.18;1775531;80;20952;-61
2022/07/28 01:18:11;;;;;;;8.50;1.60;;;;;;;13.13;81.25;99647.55;1778054;80;20966;-61
2022/07/28 01:20:51;;;;;;;6.80;2.00;;;;;;;13.14;81.36;99651.88;1780478;80;21865;-60
2022/07/28 01:23:55;;;;;;;7.05;1.65;;;;;;;13.17;81.48;99651.69;1739378;80;21036;-61
2022/07/28 01:26:44;;;;;;;5.47;1.60;;;;;;;13.19;81.49;99647.21;1737877;80;20995;-60
2022/07/28 01:29:37;;;;;;;3.65;1.60;;;;;;;13.18;81.47;99648.13;1781080;79;20909;-61
2022/07/28 01:32:09;;;;;;;9.18;1.92;;;;;;;13.18;81.55;99652.05;1748217;80;20897;-61
2022/07/28 01:34:49;;;;;;;4.40;1.35;;;;;;;13.17;81.58;99645.61;1742981;81;20962;-60
2022/07/28 01:37:27;;;;;;;4.95;1.35;;;;;;;13.18;81.70;99644.19;1772168;79;21052;-60
2022/07/28 01:40:00;;;;;;;4.17;1.40;;;;;;;13.19;81.69;99641.09;1766517;80;38321;-60
2022/07/28 01:42:37;;;;;;;2.87;1.15;;;;;;;13.18;81.73;99642.87;1770214;80;20899;-61
2022/07/28 01:45:07;;;;;;;3.98;1.98;;;;;;;13.17;81.62;99641.20;1772980;79;20985;-60
2022/07/28 01:47:35;;;;;;;5.28;1.52;;;;;;;13.14;81.69;99641.39;1738467;80;20912;-60
2022/07/28 01:50:06;;;;;;;3.00;1.05;;;;;;;13.10;81.77;99639.86;1740490;80;21046;-60
2022/07/28 01:52:34;;;;;;;5.35;1.17;;;;;;;13.10;81.89;99645.11;1752499;80;20953;-61
2022/07/28 01:55:02;;;;;;;3.62;1.37;;;;;;;13.10;81.96;99637.24;1773454;79;20951;-61
2022/07/28 01:57:31;;;;;;;3.08;0.95;;;;;;;13.09;82.03;99632.95;1769404;79;20902;-60
2022/07/28 02:00:00;;;;;;;2.25;1.10;;;;;;;13.09;82.13;99631.64;1755438;81;20997;-60
2022/07/28 02:02:29;;;;;;;4.17;1.47;;;;;;;13.11;82.20;99635.02;1754592;80;21076;-61
2022/07/28 02:04:58;;;;;;;5.17;1.47;;;;;;;13.12;82.21;99630.14;1750360;80;20953;-61
2022/07/28 02:07:26;;;;;;;3.92;1.20;;;;;;;13.13;82.24;99633.13;1750859;80;21592;-60
2022/07/28 02:09:56;;;;;;;2.85;1.22;;;;;;;13.14;82.34;99630.06;1750768;80;20950;-61
2022/07/28 02:12:25;;;;;;;3.00;1.22;;;;;;;13.14;82.33;99637.45;1750142;80;21493;-61
2022/07/28 02:14:54;;;;;;;5.22;1.70;;;;;;;13.13;82.34;99631.81;1768742;79;21475;-61
2022/07/28 02:17:27;;;;;;;2.42;0.90;;;;;;;13.14;82.35;99633.52;1767361;79;20961;-61
2022/07/28 02:19:55;;;;;;;3.12;1.20;;;;;;;13.11;82.43;99636.33;1770355;79;20941;-60
2022/07/28 02:22:23;;;;;;;6.95;1.17;;;;;;;13.12;82.52;99640.63;1753682;81;20917;-61
2022/07/28 02:24:50;;;;;;;4.17;1.30;;;;;;;13.13;82.61;99647.55;1762136;80;20878;-61
2022/07/28 02:27:37;;;;;;;3.10;1.25;;;;;;;13.14;82.68;99644.01;1725378;81;21460;-61
2022/07/28 02:30:24;;;;;;;3.22;1.25;;;;;;;13.15;82.78;99644.84;1755105;80;20922;-60
2022/07/28 02:32:54;;;;;;;2.83;1.53;;;;;;;13.16;82.85;99636.91;1757614;80;20964;-60
2022/07/28 02:35:41;;;;;;;3.72;1.32;;;;;;;13.18;82.91;99635.02;1759255;80;21044;-60
2022/07/28 02:38:15;;;;;;;2.62;1.72;;;;;;;13.18;82.93;99638.95;1756424;80;21539;-61
2022/07/28 02:40:44;;;;;;;5.25;1.50;;;;;;;13.18;82.89;99640.26;1770824;79;21025;-61
2022/07/28 02:43:15;;;;;;;6.67;1.42;;;;;;;13.20;82.96;99647.58;1768262;80;20945;-60
2022/07/28 02:45:47;;;;;;;3.15;1.30;;;;;;;13.19;83.02;99644.59;1753660;80;20954;-61
2022/07/28 02:48:18;;;;;;;5.42;1.37;;;;;;;13.19;83.02;99647.21;1722321;81;21488;-60
2022/07/28 02:50:46;;;;;;;5.50;1.65;;;;;;;13.17;83.05;99646.45;1764853;80;20964;-60
2022/07/28 02:53:16;;;;;;;4.00;1.40;;;;;;;13.16;83.21;99644.77;1757156;80;21252;-61
2022/07/28 02:55:47;;;;;;;8.63;1.90;;;;;;;13.18;83.23;99652.53;1755756;80;20887;-60
2022/07/28 02:58:17;;;;;;;6.50;1.75;;;;;;;13.20;83.32;99654.12;1764162;80;20918;-61
2022/07/28 03:00:45;;;;;;;3.02;1.20;;;;;;;13.20;83.29;99661.99;1729402;82;20974;-61
2022/07/28 03:03:11;;;;;;;;;;;;;;;13.19;83.33;99660.31;1754704;80;20948;-61
2022/07/28 03:05:40;;;;;;;3.83;1.17;;;;;;;13.20;83.39;99654.12;1755239;80;21024;-61
2022/07/28 03:08:07;;;;;;;5.53;1.32;;;;;;;13.17;83.43;99662.17;1754804;80;21007;-60
2022/07/28 03:10:34;;;;;;;;;;;;;;;13.16;83.47;99664.44;1759263;80;20957;-61
2022/07/28 03:13:04;;;;;;;4.33;1.60;;;;;;;13.15;83.75;99664.03;1755919;80;20583;-61
2022/07/28 03:15:31;;;;;;;5.17;1.42;;;;;;;13.16;83.79;99660.50;1729576;81;20929;-61
2022/07/28 03:17:59;;;;;;;4.55;1.55;;;;;;;13.20;83.93;99656.75;1757531;80;21880;-60
2022/07/28 03:20:26;;;;;;;5.15;1.50;;;;;;;13.23;83.94;99662.28;1759128;80;20922;-60
2022/07/28 03:22:54;;;;;;;5.20;1.60;;;;;;;13.30;84.07;99664.09;1759030;80;20879;-60
2022/07/28 03:25:45;;;;;;;5.78;1.98;;;;;;;13.38;84.11;99667.11;1757001;80;20968;-61
2022/07/28 03:28:18;;;;;;;3.35;1.35;;;;;;;13.45;84.09;99671.06;1770767;78;20945;-61
2022/07/28 03:30:53;;;;;;;4.62;1.70;;;;;;;13.53;84.09;99666.67;1755633;80;20989;-60
2022/07/28 03:33:19;;;;;;;4.97;1.32;;;;;;;13.57;84.09;99674.25;1748641;80;20977;-61
2022/07/28 03:35:50;;;;;;;5.08;1.50;;;;;;;13.70;84.49;99672.22;1727189;81;20862;-60
2022/07/28 03:38:28;;;;;;;5.95;1.42;;;;;;;13.70;84.49;99672.22;1767575;80;20946;-60
2022/07/28 03:40:57;;;;;;;5.35;1.40;;;;;;;13.78;84.24;99672.56;1756416;80;20862;-61
2022/07/28 03:43:26;;;;;;;4.97;1.77;;;;;;;13.84;84.28;99673.52;1762648;80;21061;-61
2022/07/28 03:45:53;;;;;;;4.37;1.37;;;;;;;13.92;84.27;99675.20;1755231;80;20987;-60
2022/07/28 03:48:24;;;;;;;4.53;1.47;;;;;;;13.99;84.28;99678.28;1756544;80;20886;-60
2022/07/28 03:50:48;;;;;;;2.80;1.37;;;;;;;14.02;84.29;99676.30;1758380;80;20969;-61
2022/07/28 03:53:25;;;;;;;7.97;1.32;;;;;;;14.08;84.21;99678.54;1754470;80;20901;-61
2022/07/28 03:55:52;;;;;;;6.83;1.55;;;;;;;14.08;84.28;99675.91;1769429;79;21051;-61
2022/07/28 03:58:21;;;;;;;;;;;;;;;14.15;84.40;99674.24;1773196;79;20908;-61
2022/07/28 04:00:48;;;;;;;4.70;1.40;;;;;;;14.22;84.46;99676.84;1769642;80;20138;-61
2022/07/28 04:03:16;;;;;;;3.00;1.47;;;;;;;14.30;84.42;99677.20;1767534;79;21010;-61
2022/07/28 04:05:43;;;;;;;5.67;1.55;;;;;;;14.32;84.29;99681.89;1754312;80;20878;-61
2022/07/28 04:08:10;;;;;;;6.60;1.50;;;;;;;14.34;84.24;99683.96;1759831;80;21073;-61
2022/07/28 04:10:37;;;;;;;6.28;1.60;;;;;;;14.37;84.32;99687.70;1749704;80;20929;-61
2022/07/28 04:13:04;;;;;;;3.45;1.40;;;;;;;14.37;84.25;99681.14;1756143;80;20863;-61
2022/07/28 04:15:31;;;;;;;8.40;1.70;;;;;;;14.42;84.32;99680.83;1750801;81;20976;-61
2022/07/28 04:17:58;;;;;;;;;;;;;;;14.46;84.34;99698.93;1723270;81;20954;-61
2022/07/28 04:20:26;;;;;;;5.53;2.27;;;;;;;14.54;84.43;99687.50;1753553;80;21076;-62
2022/07/28 04:22:54;;;;;;;4.67;1.72;;;;;;;14.61;84.44;99686.62;1756648;80;20916;-62
2022/07/28 04:25:24;;;;;;;9.00;1.75;;;;;;;14.70;84.50;99691.75;1751277;80;20929;-62
2022/07/28 04:27:52;;;;;;;7.33;1.67;;;;;;;14.78;84.33;99698.66;1754653;80;20948;-62
2022/07/28 04:30:23;;;;;;;3.65;1.60;;;;;;;14.85;84.25;99696.02;1750529;81;21462;-61
2022/07/28 04:32:52;;;;;;;3.22;1.50;;;;;;;14.87;84.19;99700.72;1752676;81;22344;-61
2022/07/28 04:35:19;;;;;;;4.87;1.60;;;;;;;14.89;84.25;99696.18;1755262;80;21380;-62
2022/07/28 04:37:49;;;;;;;8.83;1.47;;;;;;;14.87;84.11;99702.03;1768970;80;20890;-62
2022/07/28 04:40:16;;;;;;;10.20;2.12;;;;;;;14.88;84.25;99702.39;1767694;79;20945;-62
2022/07/28 04:42:43;;;;;;;2.70;1.30;;;;;;;14.92;84.27;99709.12;1769333;79;26772;-62
2022/07/28 04:45:11;;;;;;;6.05;1.92;;;;;;;15.02;84.49;99703.28;1766219;79;21131;-62
2022/07/28 04:47:38;;;;;;;6.20;1.77;;;;;;;15.11;84.38;99703.50;1753331;80;21426;-62
2022/07/28 04:50:07;;;;;;;9.10;1.82;;;;;;;15.16;84.20;99703.20;1749812;81;20953;-62
2022/07/28 04:52:34;;;;;;;7.15;1.75;;;;;;;15.20;84.24;99708.62;1767643;79;20892;-62
2022/07/28 04:55:01;;;;;;;5.55;1.60;;;;;;;15.30;84.36;99704.92;1768095;79;20947;-62
2022/07/28 04:57:28;;;;;;;4.97;1.32;;;;;;;15.40;84.31;99698.94;1754010;80;21036;-62
2022/07/28 04:59:59;;;;;;;6.30;1.90;;;;;;;15.49;84.23;99702.73;1753641;81;20916;-62
2022/07/28 05:02:26;;;;;;;4.50;1.40;;;;;;;15.54;84.02;99701.92;1756074;80;20965;-62
2022/07/28 05:04:53;;;;;;;6.28;1.70;;;;;;;15.55;83.78;99708.05;1751504;80;20882;-62
2022/07/28 05:07:20;;;;;;;8.98;1.60;;;;;;;15.61;83.97;99707.62;1767582;79;20914;-62
2022/07/28 05:09:46;;;;;;;3.87;1.20;;;;;;;15.67;83.99;99711.98;1769314;79;21482;-62
2022/07/28 05:12:13;;;;;;;3.58;1.42;;;;;;;15.83;83.97;99706.55;1768003;79;20938;-62
2022/07/28 05:14:40;;;;;;;9.75;2.33;;;;;;;15.93;83.75;99706.73;1751205;80;21703;-61
2022/07/28 05:17:06;;;;;;;5.87;1.75;;;;;;;16.05;83.64;99707.70;1754607;80;21547;-62
2022/07/28 05:19:33;;;;;;;5.62;1.95;;;;;;;16.17;83.74;99712.09;1750386;81;20930;-62
2022/07/28 05:21:59;;;;;;;7.87;2.00;;;;;;;16.30;83.69;99715.55;1770477;79;21010;-62
2022/07/28 05:24:26;;;;;;;9.85;1.82;;;;;;;16.38;83.17;99722.05;1748415;80;20993;-62
2022/07/28 05:26:53;;;;;;;7.05;1.77;;;;;;;16.45;83.43;99725.94;1767970;80;21525;-62
2022/07/28 05:29:19;;;;;;;7.10;2.05;;;;;;;16.54;83.19;99725.27;1767939;79;20977;-62
2022/07/28 05:31:47;;;;;;;48.52;37.65;;;;;;;16.60;83.16;99724.83;1739455;80;26605;-62
2022/07/28 05:34:14;;;;;;;12.13;4.50;;;;;;;16.69;83.12;99721.55;1770130;79;21032;-62
2022/07/28 05:36:40;;;;;;;8.58;2.08;;;;;;;16.83;83.10;99728.94;1770701;79;20962;-62
2022/07/28 05:39:07;;;;;;;4.70;1.95;;;;;;;16.98;83.06;99721.23;1766971;80;20938;-62
2022/07/28 05:41:34;;;;;;;5.25;1.82;;;;;;;17.17;83.10;99731.27;1769679;79;20933;-62
2022/07/28 05:44:00;;;;;;;15.00;2.72;;;;;;;17.37;82.96;99728.45;1768267;79;20966;-62
2022/07/28 05:46:28;;;;;;;12.80;1.92;;;;;;;17.30;82.12;99739.09;1767484;80;21057;-62
2022/07/28 05:48:55;;;;;;;4.25;1.67;;;;;;;17.29;82.44;99735.62;1753389;80;21001;-62
2022/07/28 05:51:21;;;;;;;5.60;1.55;;;;;;;17.30;82.13;99739.09;1751103;80;21458;-62
2022/07/28 05:53:48;;;;;;;6.12;1.60;;;;;;;17.33;82.11;99746.78;1722006;81;20849;-62
2022/07/28 05:56:15;;;;;;;4.87;1.65;;;;;;;17.34;81.80;99748.48;1710674;82;20988;-62
2022/07/28 05:58:43;;;;;;;9.28;1.90;;;;;;;17.42;82.13;99748.72;1708121;82;21975;-62
2022/07/28 06:01:09;;;;;;;7.53;1.95;;;;;;;17.55;82.00;99756.08;1710664;82;21425;-62
2022/07/28 06:03:36;;;;;;;14.33;2.60;;;;;;;17.50;81.21;99758.22;1693330;84;20914;-62
2022/07/28 06:06:04;;;;;;;6.08;1.85;;;;;;;17.51;81.53;99763.88;1722673;83;20935;-62
2022/07/28 06:08:32;;;;;;;5.15;1.57;;;;;;;17.59;81.41;99762.83;1709527;82;20982;-62
2022/07/28 06:11:00;;;;;;;6.50;1.80;;;;;;;17.58;80.87;99765.09;1747672;80;21047;-62
2022/07/28 06:13:29;;;;;;;6.03;1.62;;;;;;;17.60;80.99;99770.27;1746576;80;20949;-61
2022/07/28 06:15:57;;;;;;;4.75;1.70;;;;;;;17.70;81.09;99767.75;1750744;81;20926;-62
2022/07/28 06:18:24;;;;;;;7.22;1.52;;;;;;;17.86;80.99;99776.22;1748497;80;20891;-62
2022/07/28 06:20:51;;;;;;;6.10;1.87;;;;;;;17.95;79.64;99775.51;1749907;81;21470;-62
2022/07/28 06:23:23;;;;;;;9.50;2.20;;;;;;;18.11;80.68;99777.33;1749588;80;21210;-62
2022/07/28 06:25:47;;;;;;;7.50;2.33;;;;;;;18.83;81.69;99781.40;1745707;80;20926;-62
2022/07/28 06:28:14;;;;;;;5.90;2.52;;;;;;;19.91;81.62;99774.67;1748333;80;21436;-62
2022/07/28 06:30:41;;;;;;;8.40;1.95;;;;;;;20.50;79.91;99778.42;1746768;81;26396;-62
2022/07/28 06:33:09;;;;;;;7.62;1.90;;;;;;;20.59;77.91;99780.32;1749713;80;20886;-62
2022/07/28 06:35:36;;;;;;;5.87;1.80;;;;;;;20.72;78.42;99784.87;1725525;83;21027;-62
2022/07/28 06:38:03;;;;;;;;;;;;;;;20.83;78.53;99785.25;1724071;83;20973;-62
2022/07/28 06:40:30;;;;;;;4.83;1.65;;;;;;;20.92;77.81;99786.23;1711293;82;20117;-63
2022/07/28 06:42:57;;;;;;;7.92;2.10;;;;;;;20.78;77.22;99785.67;1707872;83;20882;-62
2022/07/28 06:45:24;;;;;;;9.93;1.70;;;;;;;20.54;76.47;99785.19;1750181;81;20913;-62
2022/07/28 06:47:51;;;;;;;;;;;;;;;20.19;76.09;99796.16;1750977;81;21046;-61
2022/07/28 06:50:18;;;;;;;8.55;1.67;;;;;;;19.97;75.88;99797.16;1753524;80;20448;-62
2022/07/28 06:52:45;;;;;;;7.97;1.67;;;;;;;19.81;76.48;99801.13;1749119;80;20910;-61
2022/07/28 06:55:14;;;;;;;3.90;1.25;;;;;;;20.17;77.15;99792.34;1742398;81;20957;-61
2022/07/28 06:57:42;;;;;;;15.20;1.80;;;;;;;20.32;75.14;99797.63;1753219;80;20957;-62
2022/07/28 07:00:12;;;;;;;5.87;1.40;;;;;;;20.01;75.11;99806.55;1743276;81;21056;-61
2022/07/28 07:02:41;;;;;;;4.83;1.42;;;;;;;19.79;75.04;99807.03;1751836;80;21099;-61
2022/07/28 07:05:09;;;;;;;3.62;1.50;;;;;;;19.74;74.75;99811.87;1751139;80;21386;-61
2022/07/28 07:07:36;;;;;;;12.68;1.80;;;;;;;19.66;71.99;99820.94;1753195;80;20968;-61
2022/07/28 07:10:05;;;;;;;3.20;1.22;;;;;;;19.61;74.29;99809.88;1751068;80;21681;-61
2022/07/28 07:12:34;;;;;;;5.58;1.77;;;;;;;19.78;73.47;99814.63;1744353;81;21031;-61
2022/07/28 07:15:03;;;;;;;5.58;1.67;;;;;;;19.60;73.41;99814.80;1746213;81;20887;-61
2022/07/28 07:17:30;;;;;;;7.08;1.57;;;;;;;19.68;73.03;99816.36;1745639;80;20917;-61
2022/07/28 07:19:57;;;;;;;6.22;1.42;;;;;;;19.89;72.64;99807.94;1771816;79;20918;-61
2022/07/28 07:22:24;;;;;;;8.45;1.17;;;;;;;20.43;73.50;99817.08;1749534;80;20887;-62
2022/07/28 07:24:51;;;;;;;6.30;1.67;;;;;;;20.62;71.66;99811.88;1756573;81;21460;-62
2022/07/28 07:27:17;;;;;;;8.70;1.70;;;;;;;20.45;71.60;99823.09;1757248;80;21280;-62
2022/07/28 07:29:44;;;;;;;5.15;1.95;;;;;;;20.17;71.59;99825.47;1753888;81;21406;-61
2022/07/28 07:32:11;;;;;;;3.65;1.20;;;;;;;19.96;71.59;99821.98;1736362;81;28192;-61
2022/07/28 07:34:38;;;;;;;6.47;1.57;;;;;;;19.90;71.11;99828.65;1736699;81;20901;-61
2022/07/28 07:37:06;;;;;;;4.40;1.30;;;;;;;19.68;70.34;99832.25;1736015;81;21120;-61
2022/07/28 07:39:33;;;;;;;7.15;1.67;;;;;;;19.47;70.36;99841.97;1733705;81;21480;-61
2022/07/28 07:41:59;;;;;;;3.95;1.22;;;;;;;19.50;71.27;99833.77;1742677;81;20862;-61
2022/07/28 07:44:26;;;;;;;7.40;1.75;;;;;;;19.93;70.68;99838.16;1737159;81;21447;-61
2022/07/28 07:46:53;;;;;;;6.45;1.37;;;;;;;20.22;71.39;99839.18;1734711;81;21388;-61
2022/07/28 07:49:20;;;;;;;3.95;1.20;;;;;;;20.43;69.57;99831.66;1731594;81;21039;-63
2022/07/28 07:51:46;;;;;;;14.43;1.77;;;;;;;20.83;69.64;99838.32;1744443;80;20862;-64
2022/07/28 07:54:13;;;;;;;5.75;1.62;;;;;;;20.57;68.30;99840.62;1777439;79;20938;-63
2022/07/28 07:56:40;;;;;;;5.92;1.45;;;;;;;20.27;68.85;99846.72;1769995;79;20902;-63
2022/07/28 07:59:06;;;;;;;6.72;1.92;;;;;;;20.19;69.42;99850.02;1755179;80;20987;-63
2022/07/28 08:01:33;;;;;;;7.97;1.57;;;;;;;20.27;69.45;99850.20;1756006;80;21392;-63
2022/07/28 08:04:00;;;;;;;8.98;1.45;;;;;;;20.24;69.25;99855.77;1757845;80;20949;-63
2022/07/28 08:06:27;;;;;;;5.37;1.47;;;;;;;19.97;68.39;99855.46;1755929;81;20965;-62
2022/07/28 08:08:54;;;;;;;8.55;1.35;;;;;;;19.70;68.65;99851.52;1757087;80;21003;-63
2022/07/28 08:11:22;;;;;;;3.85;1.50;;;;;;;19.58;68.82;99855.16;1750995;80;20989;-62
2022/07/28 08:13:48;;;;;;;;;;;;;;;19.31;67.77;99861.75;1756580;80;21047;-63
2022/07/28 08:16:15;;;;;;;5.30;1.42;;;;;;;19.09;67.62;99864.45;1751583;81;20141;-63
2022/07/28 08:18:43;;;;;;;4.90;1.50;;;;;;;18.86;67.89;99872.42;1751969;80;21573;-63
2022/07/28 08:21:11;;;;;;;5.65;1.40;;;;;;;18.96;68.67;99878.67;1752420;80;20892;-61
2022/07/28 08:23:38;;;;;;;3.37;1.17;;;;;;;19.13;67.67;99873.81;1750985;80;21001;-63
2022/07/28 08:26:05;;;;;;;6.15;1.35;;;;;;;19.01;67.73;99876.47;1752528;80;21012;-62
2022/07/28 08:28:31;;;;;;;3.95;1.05;;;;;;;18.90;67.27;99879.13;1753287;80;21605;-63
2022/07/28 08:30:58;;;;;;;5.75;1.55;;;;;;;18.87;67.09;99883.35;1753392;80;20950;-63
2022/07/28 08:33:25;;;;;;;7.97;1.25;;;;;;;19.24;68.12;99877.78;1751927;80;20898;-64
2022/07/28 08:35:52;;;;;;;5.87;1.62;;;;;;;19.29;67.33;99882.20;1755421;80;20941;-64
2022/07/28 08:38:18;;;;;;;5.80;1.80;;;;;;;19.63;68.27;99884.73;1747863;81;21582;-62
2022/07/28 08:40:49;;;;;;;6.83;2.05;;;;;;;19.66;67.69;99889.81;1750178;80;20918;-62
2022/07/28 08:43:26;;;;;;;5.72;1.37;;;;;;;19.57;67.56;99882.59;1751136;81;20922;-62
2022/07/28 08:45:54;;;;;;;7.42;1.37;;;;;;;19.38;67.69;99888.09;1747727;80;20945;-63
2022/07/28 08:48:22;;;;;;;9.00;2.25;;;;;;;19.25;67.03;99895.83;1754386;80;20863;-66
2022/07/28 08:50:50;;;;;;;9.23;1.92;;;;;;;19.08;67.69;99897.18;1754724;80;21043;-63
2022/07/28 08:53:19;;;;;;;6.87;1.27;;;;;;;19.16;67.90;99900.06;1753879;80;20988;-64
2022/07/28 08:55:48;;;;;;;27.42;3.65;;;;;;;19.44;68.37;99894.70;1720648;81;20866;-64
2022/07/28 08:58:16;;;;;;;15.35;2.33;;;;;;;19.93;68.43;99892.48;1755515;80;20940;-63
2022/07/28 09:00:43;;;;;;;7.25;1.50;;;;;;;20.48;68.29;99891.78;1754904;80;20950;-64
2022/07/28 09:03:12;;;;;;;4.78;1.60;;;;;;;20.62;67.60;99902.08;1758432;80;21014;-64
2022/07/28 09:05:42;;;;;;;2.90;1.02;;;;;;;20.43;66.77;99899.29;1730547;81;20849;-63
2022/07/28 09:08:11;;;;;;;7.72;1.75;;;;;;;19.89;66.42;99912.61;1735114;81;21463;-63
2022/07/28 09:10:37;;;;;;;11.45;1.67;;;;;;;19.54;66.75;99914.63;1733822;81;20926;-62
2022/07/28 09:13:04;;;;;;;5.30;1.45;;;;;;;19.22;66.71;99915.44;1749641;80;20922;-63
2022/07/28 09:15:31;;;;;;;7.12;1.50;;;;;;;18.86;66.48;99921.36;1754267;80;20958;-64
2022/07/28 09:17:58;;;;;;;;;;;;;;;18.52;66.48;99920.48;1756685;81;20980;-64
2022/07/28 09:20:28;;;;;;;17.77;1.57;;;;;;;18.43;67.18;99926.00;1753003;80;20110;-63
2022/07/28 09:23:01;;;;;;;5.92;1.10;;;;;;;18.71;68.13;99923.87;1748007;80;20894;-64
2022/07/28 09:25:29;;;;;;;9.93;1.52;;;;;;;19.50;68.35;99918.52;1747874;80;20942;-62
2022/07/28 09:28:14;;;;;;;5.55;1.30;;;;;;;20.19;68.25;99918.95;1753216;80;22259;-62
2022/07/28 09:30:44;;;;;;;4.50;1.45;;;;;;;20.24;66.22;99906.14;1753410;80;21017;-62
2022/07/28 09:33:28;;;;;;;5.37;1.52;;;;;;;19.99;64.98;99934.36;1754368;81;20946;-62
2022/07/28 09:35:57;;;;;;;3.85;1.22;;;;;;;19.28;63.90;99933.47;1754216;80;20886;-62
2022/07/28 09:38:29;;;;;;;4.08;1.37;;;;;;;18.80;65.48;99939.05;1754758;81;20905;-62
2022/07/28 09:41:02;;;;;;;7.60;1.62;;;;;;;18.53;65.77;99932.24;1752542;80;21061;-62
2022/07/28 09:43:39;;;;;;;3.60;1.25;;;;;;;18.38;66.07;99936.08;1753147;80;20913;-62
2022/07/28 09:46:12;;;;;;;3.92;1.25;;;;;;;18.46;66.64;99935.50;1732031;81;20969;-62
2022/07/28 09:48:53;;;;;;;10.13;1.65;;;;;;;19.18;67.15;99929.87;1732479;81;20944;-60
2022/07/28 09:51:26;;;;;;;4.17;1.40;;;;;;;19.86;66.58;99930.09;1770793;80;21509;-60
2022/07/28 09:53:55;;;;;;;6.03;1.47;;;;;;;19.57;63.71;99936.89;1770636;79;21478;-62
2022/07/28 09:56:24;;;;;;;4.67;1.15;;;;;;;19.42;65.26;99938.49;1754691;80;20944;-61
2022/07/28 09:58:58;;;;;;;6.97;1.42;;;;;;;19.30;64.49;99936.02;1755083;80;21534;-62
2022/07/28 10:01:26;;;;;;;4.47;1.15;;;;;;;19.16;64.77;99939.76;1755191;80;20897;-62
2022/07/28 10:03:57;;;;;;;9.03;1.17;;;;;;;19.54;65.84;99933.17;1757204;80;21479;-62
2022/07/28 10:06:32;;;;;;;5.03;1.32;;;;;;;19.94;65.76;99932.57;1755899;80;21840;-63
2022/07/28 10:09:02;;;;;;;7.33;1.22;;;;;;;20.07;64.77;99946.49;1751697;80;21429;-63
2022/07/28 10:11:29;;;;;;;4.17;0.80;;;;;;;19.86;64.91;99942.02;1753873;80;20903;-64
2022/07/28 10:14:01;;;;;;;;;;;;;;;19.78;64.46;99952.89;1729316;80;20910;-63
2022/07/28 10:16:45;;;;;;;4.10;0.95;;;;;;;19.55;64.59;99956.03;1773647;80;20417;-63
2022/07/28 10:19:12;;;;;;;2.27;0.90;;;;;;;19.57;64.79;99963.37;1768962;80;22184;-63
2022/07/28 10:21:44;;;;;;;4.20;1.40;;;;;;;19.84;65.20;99962.48;1752810;80;21431;-64
2022/07/28 10:24:20;;;;;;;9.28;1.25;;;;;;;20.01;64.78;99969.53;1754238;80;21421;-64
2022/07/28 10:26:49;;;;;;;5.75;0.98;;;;;;;20.21;64.82;99970.03;1755536;80;20953;-63
2022/07/28 10:29:19;;;;;;;4.72;1.17;;;;;;;20.37;64.35;99955.51;1752423;80;20993;-64
2022/07/28 10:31:56;;;;;;;3.47;1.52;;;;;;;20.45;64.63;99961.01;1752058;80;21950;-63
2022/07/28 10:34:49;;;;;;;8.08;1.50;;;;;;;20.42;62.87;99968.73;1750593;81;20897;-64
2022/07/28 10:37:22;;;;;;;7.08;1.22;;;;;;;19.99;63.08;99970.14;1750225;80;20948;-63
2022/07/28 10:40:03;;;;;;;5.62;1.20;;;;;;;19.89;64.11;99976.20;1771597;79;20916;-63
2022/07/28 10:42:31;;;;;;;9.05;1.65;;;;;;;20.11;64.22;99971.80;1756973;81;20914;-64
2022/07/28 10:44:58;;;;;;;4.50;1.30;;;;;;;20.30;63.87;99969.26;1757963;80;20971;-63
2022/07/28 10:47:27;;;;;;;4.10;1.00;;;;;;;20.50;63.95;99969.39;1757618;80;21451;-63
2022/07/28 10:49:54;;;;;;;2.67;0.95;;;;;;;20.59;62.81;99971.31;1768865;79;21456;-64
2022/07/28 10:52:21;;;;;;;;;;;;;;;20.54;62.87;99967.72;1733854;81;20926;-63
2022/07/28 10:55:08;;;;;;;4.72;1.32;;;;;;;20.68;62.06;99974.99;1744830;80;20137;-64
2022/07/28 10:57:40;;;;;;;11.40;2.20;;;;;;;21.03;63.92;99975.91;1738346;82;21080;-63
2022/07/28 11:00:17;;;;;;;3.83;0.90;;;;;;;21.44;62.57;99970.16;1774250;80;20921;-64
2022/07/28 11:02:57;;;;;;;10.60;1.57;;;;;;;21.19;61.64;99978.92;1735652;80;20906;-61
2022/07/28 11:05:30;;;;;;;6.83;1.50;;;;;;;20.81;62.37;99985.37;1764917;80;20965;-62
2022/07/28 11:08:07;;;;;;;4.17;1.42;;;;;;;20.79;62.54;99981.05;1775809;79;20983;-60
2022/07/28 11:10:49;;;;;;;4.08;1.72;;;;;;;20.78;62.37;99982.04;1743749;80;21083;-61
2022/07/28 11:13:34;;;;;;;7.03;1.77;;;;;;;20.48;61.32;99981.47;1760206;79;20946;-61
2022/07/28 11:16:17;;;;;;;4.83;1.30;;;;;;;20.20;61.97;99981.62;1782298;79;20898;-61
2022/07/28 11:19:10;;;;;;;7.75;1.82;;;;;;;20.27;62.03;99988.08;1778657;79;20910;-61
2022/07/28 11:21:34;;;;;;;6.92;1.72;;;;;;;20.58;62.42;99985.53;1772198;79;20971;-61
2022/07/28 11:24:01;;;;;;;3.25;0.80;;;;;;;20.97;62.08;99987.07;1774418;79;21032;-61
2022/07/28 11:26:35;;;;;;;4.25;1.20;;;;;;;20.99;61.50;99982.48;1772722;79;20983;-61
2022/07/28 11:29:13;;;;;;;4.30;1.25;;;;;;;21.06;61.68;99987.63;1760254;79;21027;-61
2022/07/28 11:31:51;;;;;;;4.85;1.00;;;;;;;21.05;61.55;99981.10;1760811;79;20933;-61
2022/07/28 11:34:21;;;;;;;12.53;2.15;;;;;;;21.34;61.68;99979.87;1760741;79;20862;-61
2022/07/28 11:37:09;;;;;;;6.80;1.55;;;;;;;21.26;60.88;99986.34;1778449;79;21041;-62
2022/07/28 11:39:40;;;;;;;7.12;1.17;;;;;;;20.89;60.25;99993.52;1781394;79;20917;-61
2022/07/28 11:42:27;;;;;;;4.37;1.02;;;;;;;20.39;59.87;100000.82;1745905;80;20991;-61
2022/07/28 11:44:55;;;;;;;4.05;1.50;;;;;;;19.82;59.28;99996.20;1769396;79;21441;-60
2022/07/28 11:47:27;;;;;;;7.10;1.80;;;;;;;19.63;60.76;99994.66;1771871;79;20897;-61
2022/07/28 11:50:14;;;;;;;4.70;1.30;;;;;;;19.50;60.73;99992.66;1739298;80;20999;-60